sensor_id;sensor_type;location;lat;lon;timestamp;temperature;humidity
29241;DHT22;16268;49.880;8.648;2022-09-09T00:01:58;18.50;99.90
29241;DHT22;16268;49.880;8.648;2022-09-09T00:04:27;18.40;99.90
29241;DHT22;16268;49.880;8.648;2022-09-09T00:13:19;18.30;99.90
29241;DHT22;16268;49.880;8.648;2022-09-09T00:18:31;18.20;99.90
29241;DHT22;16268;49.880;8.648;2022-09-09T00:21:13;18.10;99.90
29241;DHT22;16268;49.880;8.648;2022-09-09T00:23:53;18.10;99.90
29241;DHT22;16268;49.880;8.648;2022-09-09T00:26:30;18.10;99.90
29241;DHT22;16268;49.880;8.648;2022-09-09T00:29:26;18.10;99.90
29241;DHT22;16268;49.880;8.648;2022-09-09T00:31:57;18.10;99.90
29241;DHT22;16268;49.880;8.648;2022-09-09T00:34:26;18.10;99.90
29241;DHT22;16268;49.880;8.648;2022-09-09T00:36:54;18.10;99.90
29241;DHT22;16268;49.880;8.648;2022-09-09T00:39:41;18.10;99.90
29241;DHT22;16268;49.880;8.648;2022-09-09T00:42:17;18.20;99.90
29241;DHT22;16268;49.880;8.648;2022-09-09T00:44:59;18.20;99.90
29241;DHT22;16268;49.880;8.648;2022-09-09T00:47:53;18.30;99.90
29241;DHT22;16268;49.880;8.648;2022-09-09T00:50:39;18.30;99.90
29241;DHT22;16268;49.880;8.648;2022-09-09T00:58:25;18.40;99.90
29241;DHT22;16268;49.880;8.648;2022-09-09T01:01:08;18.40;99.90
29241;DHT22;16268;49.880;8.648;2022-09-09T01:03:54;18.40;99.90
29241;DHT22;16268;49.880;8.648;2022-09-09T01:06:31;18.40;99.90
29241;DHT22;16268;49.880;8.648;2022-09-09T01:12:30;18.50;99.90
29241;DHT22;16268;49.880;8.648;2022-09-09T01:15:12;18.40;99.90
29241;DHT22;16268;49.880;8.648;2022-09-09T01:20:35;18.30;99.90
29241;DHT22;16268;49.880;8.648;2022-09-09T01:23:10;18.30;99.90
29241;DHT22;16268;49.880;8.648;2022-09-09T01:28:47;18.30;99.90
29241;DHT22;16268;49.880;8.648;2022-09-09T01:31:18;18.30;99.90
29241;DHT22;16268;49.880;8.648;2022-09-09T01:33:44;18.20;99.90
29241;DHT22;16268;49.880;8.648;2022-09-09T01:36:23;18.20;99.90
29241;DHT22;16268;49.880;8.648;2022-09-09T01:38:49;18.20;99.90
29241;DHT22;16268;49.880;8.648;2022-09-09T01:41:15;18.20;99.90
29241;DHT22;16268;49.880;8.648;2022-09-09T01:43:40;18.20;99.90
29241;DHT22;16268;49.880;8.648;2022-09-09T01:46:06;18.10;99.90
29241;DHT22;16268;49.880;8.648;2022-09-09T01:48:33;18.10;99.90
29241;DHT22;16268;49.880;8.648;2022-09-09T01:50:58;18.10;99.90
29241;DHT22;16268;49.880;8.648;2022-09-09T01:53:24;18.00;99.90
29241;DHT22;16268;49.880;8.648;2022-09-09T01:56:21;18.00;99.90
29241;DHT22;16268;49.880;8.648;2022-09-09T01:59:18;17.90;99.90
29241;DHT22;16268;49.880;8.648;2022-09-09T02:06:57;17.90;99.90
29241;DHT22;16268;49.880;8.648;2022-09-09T02:09:25;17.90;99.90
29241;DHT22;16268;49.880;8.648;2022-09-09T02:12:04;17.90;99.90
29241;DHT22;16268;49.880;8.648;2022-09-09T02:14:36;17.80;99.90
29241;DHT22;16268;49.880;8.648;2022-09-09T02:17:09;17.80;99.90
29241;DHT22;16268;49.880;8.648;2022-09-09T02:19:45;17.80;99.90
29241;DHT22;16268;49.880;8.648;2022-09-09T02:22:11;17.80;99.90
29241;DHT22;16268;49.880;8.648;2022-09-09T02:24:40;17.90;99.90
29241;DHT22;16268;49.880;8.648;2022-09-09T02:27:07;17.90;99.90
29241;DHT22;16268;49.880;8.648;2022-09-09T02:29:36;17.90;99.90
29241;DHT22;16268;49.880;8.648;2022-09-09T02:32:05;17.90;99.90
29241;DHT22;16268;49.880;8.648;2022-09-09T02:34:35;17.90;99.90
29241;DHT22;16268;49.880;8.648;2022-09-09T02:37:03;18.00;99.90
29241;DHT22;16268;49.880;8.648;2022-09-09T02:39:29;18.00;99.90
29241;DHT22;16268;49.880;8.648;2022-09-09T02:41:54;18.00;99.90
29241;DHT22;16268;49.880;8.648;2022-09-09T02:44:20;18.00;99.90
29241;DHT22;16268;49.880;8.648;2022-09-09T02:49:40;18.10;99.90
29241;DHT22;16268;49.880;8.648;2022-09-09T02:52:11;18.10;99.90
29241;DHT22;16268;49.880;8.648;2022-09-09T02:54:41;18.10;99.90
29241;DHT22;16268;49.880;8.648;2022-09-09T02:59:38;18.10;99.90
29241;DHT22;16268;49.880;8.648;2022-09-09T03:02:04;18.10;99.90
29241;DHT22;16268;49.880;8.648;2022-09-09T03:04:30;18.00;99.90
29241;DHT22;16268;49.880;8.648;2022-09-09T03:06:57;18.10;99.90
29241;DHT22;16268;49.880;8.648;2022-09-09T03:09:23;18.00;99.90
29241;DHT22;16268;49.880;8.648;2022-09-09T03:11:49;18.00;99.90
29241;DHT22;16268;49.880;8.648;2022-09-09T03:14:15;18.00;99.90
29241;DHT22;16268;49.880;8.648;2022-09-09T03:16:41;17.90;99.90
29241;DHT22;16268;49.880;8.648;2022-09-09T03:19:08;18.00;99.90
29241;DHT22;16268;49.880;8.648;2022-09-09T03:21:34;17.80;99.90
29241;DHT22;16268;49.880;8.648;2022-09-09T03:24:01;17.80;99.90
29241;DHT22;16268;49.880;8.648;2022-09-09T03:26:28;17.80;99.90
29241;DHT22;16268;49.880;8.648;2022-09-09T03:28:54;17.80;99.90
29241;DHT22;16268;49.880;8.648;2022-09-09T03:31:20;17.70;99.90
29241;DHT22;16268;49.880;8.648;2022-09-09T03:33:46;17.80;99.90
29241;DHT22;16268;49.880;8.648;2022-09-09T03:36:11;17.70;99.90
29241;DHT22;16268;49.880;8.648;2022-09-09T03:38:37;17.70;99.90
29241;DHT22;16268;49.880;8.648;2022-09-09T03:41:02;17.70;99.90
29241;DHT22;16268;49.880;8.648;2022-09-09T03:43:29;17.60;99.90
29241;DHT22;16268;49.880;8.648;2022-09-09T03:45:55;17.60;99.90
29241;DHT22;16268;49.880;8.648;2022-09-09T03:48:24;17.60;99.90
29241;DHT22;16268;49.880;8.648;2022-09-09T03:50:52;17.60;99.90
29241;DHT22;16268;49.880;8.648;2022-09-09T03:53:20;17.60;99.90
29241;DHT22;16268;49.880;8.648;2022-09-09T03:55:47;17.60;99.90
29241;DHT22;16268;49.880;8.648;2022-09-09T03:58:14;17.60;99.90
29241;DHT22;16268;49.880;8.648;2022-09-09T04:00:40;17.50;99.90
29241;DHT22;16268;49.880;8.648;2022-09-09T04:03:08;17.50;99.90
29241;DHT22;16268;49.880;8.648;2022-09-09T04:05:34;17.40;99.90
29241;DHT22;16268;49.880;8.648;2022-09-09T04:07:59;17.40;99.90
29241;DHT22;16268;49.880;8.648;2022-09-09T04:10:25;17.30;99.90
29241;DHT22;16268;49.880;8.648;2022-09-09T04:12:51;17.30;99.90
29241;DHT22;16268;49.880;8.648;2022-09-09T04:15:18;17.10;99.90
29241;DHT22;16268;49.880;8.648;2022-09-09T04:17:44;17.20;99.90
29241;DHT22;16268;49.880;8.648;2022-09-09T04:20:09;17.20;99.90
29241;DHT22;16268;49.880;8.648;2022-09-09T04:22:37;17.20;99.90
29241;DHT22;16268;49.880;8.648;2022-09-09T04:25:05;17.20;99.90
29241;DHT22;16268;49.880;8.648;2022-09-09T04:27:31;17.20;99.90
29241;DHT22;16268;49.880;8.648;2022-09-09T04:29:57;17.20;99.90
29241;DHT22;16268;49.880;8.648;2022-09-09T04:32:23;17.20;99.90
29241;DHT22;16268;49.880;8.648;2022-09-09T04:34:49;17.30;99.90
29241;DHT22;16268;49.880;8.648;2022-09-09T04:37:15;17.30;99.90
29241;DHT22;16268;49.880;8.648;2022-09-09T04:39:40;17.30;99.90
29241;DHT22;16268;49.880;8.648;2022-09-09T04:42:06;17.40;99.90
29241;DHT22;16268;49.880;8.648;2022-09-09T04:44:32;17.30;99.90
29241;DHT22;16268;49.880;8.648;2022-09-09T04:46:57;17.30;99.90
29241;DHT22;16268;49.880;8.648;2022-09-09T04:49:23;17.20;99.90
29241;DHT22;16268;49.880;8.648;2022-09-09T04:51:49;17.20;99.90
29241;DHT22;16268;49.880;8.648;2022-09-09T04:54:14;17.10;99.90
29241;DHT22;16268;49.880;8.648;2022-09-09T04:56:40;17.10;99.90
29241;DHT22;16268;49.880;8.648;2022-09-09T04:59:07;17.10;99.90
29241;DHT22;16268;49.880;8.648;2022-09-09T05:01:33;17.00;99.90
29241;DHT22;16268;49.880;8.648;2022-09-09T05:03:58;17.00;99.90
29241;DHT22;16268;49.880;8.648;2022-09-09T05:06:24;17.00;99.90
29241;DHT22;16268;49.880;8.648;2022-09-09T05:08:51;17.00;99.90
29241;DHT22;16268;49.880;8.648;2022-09-09T05:11:22;17.00;99.90
29241;DHT22;16268;49.880;8.648;2022-09-09T05:13:51;17.00;99.90
29241;DHT22;16268;49.880;8.648;2022-09-09T05:16:17;17.10;99.90
29241;DHT22;16268;49.880;8.648;2022-09-09T05:18:43;17.10;99.90
29241;DHT22;16268;49.880;8.648;2022-09-09T05:21:14;17.10;99.90
29241;DHT22;16268;49.880;8.648;2022-09-09T05:23:39;17.20;99.90
29241;DHT22;16268;49.880;8.648;2022-09-09T05:26:06;17.20;99.90
29241;DHT22;16268;49.880;8.648;2022-09-09T05:28:34;17.20;99.90
29241;DHT22;16268;49.880;8.648;2022-09-09T05:31:02;17.20;99.90
29241;DHT22;16268;49.880;8.648;2022-09-09T05:33:30;17.20;99.90
29241;DHT22;16268;49.880;8.648;2022-09-09T05:36:02;17.20;99.90
29241;DHT22;16268;49.880;8.648;2022-09-09T05:38:30;17.20;99.90
29241;DHT22;16268;49.880;8.648;2022-09-09T05:40:56;17.20;99.90
29241;DHT22;16268;49.880;8.648;2022-09-09T05:43:23;17.30;99.90
29241;DHT22;16268;49.880;8.648;2022-09-09T05:46:02;17.40;99.90
29241;DHT22;16268;49.880;8.648;2022-09-09T05:48:30;17.30;99.90
29241;DHT22;16268;49.880;8.648;2022-09-09T05:50:56;17.40;99.90
29241;DHT22;16268;49.880;8.648;2022-09-09T05:53:22;17.30;99.90
29241;DHT22;16268;49.880;8.648;2022-09-09T05:55:47;17.30;99.90
29241;DHT22;16268;49.880;8.648;2022-09-09T05:58:13;17.30;99.90
29241;DHT22;16268;49.880;8.648;2022-09-09T06:00:40;17.20;99.90
29241;DHT22;16268;49.880;8.648;2022-09-09T06:03:06;17.20;99.90
29241;DHT22;16268;49.880;8.648;2022-09-09T06:05:31;17.30;99.90
29241;DHT22;16268;49.880;8.648;2022-09-09T06:07:59;17.40;99.90
29241;DHT22;16268;49.880;8.648;2022-09-09T06:10:24;17.50;99.90
29241;DHT22;16268;49.880;8.648;2022-09-09T06:12:52;17.80;99.90
29241;DHT22;16268;49.880;8.648;2022-09-09T06:15:18;17.90;99.90
29241;DHT22;16268;49.880;8.648;2022-09-09T06:17:43;17.90;99.90
29241;DHT22;16268;49.880;8.648;2022-09-09T06:20:10;17.90;99.90
29241;DHT22;16268;49.880;8.648;2022-09-09T06:22:38;18.00;99.90
29241;DHT22;16268;49.880;8.648;2022-09-09T06:25:04;18.20;99.90
29241;DHT22;16268;49.880;8.648;2022-09-09T06:27:30;18.40;99.90
29241;DHT22;16268;49.880;8.648;2022-09-09T06:29:56;18.40;99.90
29241;DHT22;16268;49.880;8.648;2022-09-09T06:32:21;18.60;99.90
29241;DHT22;16268;49.880;8.648;2022-09-09T06:34:47;18.60;99.90
29241;DHT22;16268;49.880;8.648;2022-09-09T06:37:14;18.60;99.90
29241;DHT22;16268;49.880;8.648;2022-09-09T06:39:40;18.70;99.90
29241;DHT22;16268;49.880;8.648;2022-09-09T06:42:05;18.80;99.90
29241;DHT22;16268;49.880;8.648;2022-09-09T06:44:34;19.00;99.90
29241;DHT22;16268;49.880;8.648;2022-09-09T06:46:59;19.00;99.90
29241;DHT22;16268;49.880;8.648;2022-09-09T06:49:25;18.90;99.90
29241;DHT22;16268;49.880;8.648;2022-09-09T06:51:50;18.80;99.90
29241;DHT22;16268;49.880;8.648;2022-09-09T06:54:17;18.80;99.90
29241;DHT22;16268;49.880;8.648;2022-09-09T06:56:43;18.80;99.90
29241;DHT22;16268;49.880;8.648;2022-09-09T06:59:11;19.00;99.90
29241;DHT22;16268;49.880;8.648;2022-09-09T07:01:41;19.10;99.90
29241;DHT22;16268;49.880;8.648;2022-09-09T07:04:09;19.10;99.90
29241;DHT22;16268;49.880;8.648;2022-09-09T07:06:39;19.00;99.90
29241;DHT22;16268;49.880;8.648;2022-09-09T07:09:07;18.90;99.90
29241;DHT22;16268;49.880;8.648;2022-09-09T07:11:38;18.70;99.90
29241;DHT22;16268;49.880;8.648;2022-09-09T07:14:04;18.70;99.90
29241;DHT22;16268;49.880;8.648;2022-09-09T07:16:29;18.70;99.90
29241;DHT22;16268;49.880;8.648;2022-09-09T07:18:57;18.70;99.90
29241;DHT22;16268;49.880;8.648;2022-09-09T07:21:26;18.80;99.90
29241;DHT22;16268;49.880;8.648;2022-09-09T07:23:53;18.80;99.90
29241;DHT22;16268;49.880;8.648;2022-09-09T07:26:21;18.80;99.90
29241;DHT22;16268;49.880;8.648;2022-09-09T07:28:47;18.70;99.90
29241;DHT22;16268;49.880;8.648;2022-09-09T07:31:37;18.70;99.90
29241;DHT22;16268;49.880;8.648;2022-09-09T07:34:04;18.70;99.90
29241;DHT22;16268;49.880;8.648;2022-09-09T07:36:32;18.80;99.90
29241;DHT22;16268;49.880;8.648;2022-09-09T07:39:00;18.80;99.90
29241;DHT22;16268;49.880;8.648;2022-09-09T07:41:29;18.70;99.90
29241;DHT22;16268;49.880;8.648;2022-09-09T07:43:57;18.70;99.90
29241;DHT22;16268;49.880;8.648;2022-09-09T07:46:25;18.80;99.90
29241;DHT22;16268;49.880;8.648;2022-09-09T07:48:53;18.80;99.90
29241;DHT22;16268;49.880;8.648;2022-09-09T07:51:25;18.80;99.90
29241;DHT22;16268;49.880;8.648;2022-09-09T07:53:53;18.90;99.90
29241;DHT22;16268;49.880;8.648;2022-09-09T07:56:20;19.20;99.90
29241;DHT22;16268;49.880;8.648;2022-09-09T07:58:49;19.40;99.90
29241;DHT22;16268;49.880;8.648;2022-09-09T08:01:21;19.50;99.90
29241;DHT22;16268;49.880;8.648;2022-09-09T08:03:59;19.70;99.90
29241;DHT22;16268;49.880;8.648;2022-09-09T08:06:27;19.90;99.90
29241;DHT22;16268;49.880;8.648;2022-09-09T08:08:53;20.20;99.90
29241;DHT22;16268;49.880;8.648;2022-09-09T08:11:20;20.20;99.90
29241;DHT22;16268;49.880;8.648;2022-09-09T08:13:48;20.20;99.90
29241;DHT22;16268;49.880;8.648;2022-09-09T08:16:17;20.10;99.90
29241;DHT22;16268;49.880;8.648;2022-09-09T08:18:43;20.00;99.90
29241;DHT22;16268;49.880;8.648;2022-09-09T08:21:14;20.00;99.90
29241;DHT22;16268;49.880;8.648;2022-09-09T08:23:43;20.00;99.90
29241;DHT22;16268;49.880;8.648;2022-09-09T08:26:16;20.00;99.90
29241;DHT22;16268;49.880;8.648;2022-09-09T08:28:43;19.90;99.90
29241;DHT22;16268;49.880;8.648;2022-09-09T08:31:17;20.00;99.90
29241;DHT22;16268;49.880;8.648;2022-09-09T08:33:43;20.20;99.90
29241;DHT22;16268;49.880;8.648;2022-09-09T08:36:16;20.40;99.90
29241;DHT22;16268;49.880;8.648;2022-09-09T08:38:43;20.30;99.90
29241;DHT22;16268;49.880;8.648;2022-09-09T08:47:05;20.40;99.90
29241;DHT22;16268;49.880;8.648;2022-09-09T08:52:17;20.50;99.90
29241;DHT22;16268;49.880;8.648;2022-09-09T08:54:46;20.60;99.90
29241;DHT22;16268;49.880;8.648;2022-09-09T08:57:16;20.70;99.90
29241;DHT22;16268;49.880;8.648;2022-09-09T08:59:43;20.70;99.90
29241;DHT22;16268;49.880;8.648;2022-09-09T09:02:42;20.80;99.90
29241;DHT22;16268;49.880;8.648;2022-09-09T09:05:28;20.60;99.90
29241;DHT22;16268;49.880;8.648;2022-09-09T09:10:50;20.40;99.90
29241;DHT22;16268;49.880;8.648;2022-09-09T09:16:00;19.80;99.90
29241;DHT22;16268;49.880;8.648;2022-09-09T09:18:27;19.50;99.90
29241;DHT22;16268;49.880;8.648;2022-09-09T09:21:16;19.40;99.90
29241;DHT22;16268;49.880;8.648;2022-09-09T09:23:56;19.00;99.90
29241;DHT22;16268;49.880;8.648;2022-09-09T09:26:25;19.10;99.90
29241;DHT22;16268;49.880;8.648;2022-09-09T09:28:56;19.30;99.90
29241;DHT22;16268;49.880;8.648;2022-09-09T09:31:22;19.30;99.90
29241;DHT22;16268;49.880;8.648;2022-09-09T09:33:53;19.70;99.90
29241;DHT22;16268;49.880;8.648;2022-09-09T09:36:24;21.10;99.90
29241;DHT22;16268;49.880;8.648;2022-09-09T09:38:58;21.50;99.90
29241;DHT22;16268;49.880;8.648;2022-09-09T09:41:34;21.70;99.90
29241;DHT22;16268;49.880;8.648;2022-09-09T09:44:01;21.60;99.90
29241;DHT22;16268;49.880;8.648;2022-09-09T09:46:27;21.60;99.90
29241;DHT22;16268;49.880;8.648;2022-09-09T09:49:04;21.60;99.90
29241;DHT22;16268;49.880;8.648;2022-09-09T09:51:32;21.70;99.90
29241;DHT22;16268;49.880;8.648;2022-09-09T09:56:39;22.00;99.90
29241;DHT22;16268;49.880;8.648;2022-09-09T09:59:05;22.20;99.90
29241;DHT22;16268;49.880;8.648;2022-09-09T10:01:32;22.40;99.90
29241;DHT22;16268;49.880;8.648;2022-09-09T10:04:20;22.40;99.90
29241;DHT22;16268;49.880;8.648;2022-09-09T10:06:49;22.30;99.90
29241;DHT22;16268;49.880;8.648;2022-09-09T10:14:21;22.40;99.90
29241;DHT22;16268;49.880;8.648;2022-09-09T10:20:16;22.90;99.90
29241;DHT22;16268;49.880;8.648;2022-09-09T10:22:50;23.20;99.90
29241;DHT22;16268;49.880;8.648;2022-09-09T10:25:29;23.30;99.90
29241;DHT22;16268;49.880;8.648;2022-09-09T10:34:06;23.10;99.90
29241;DHT22;16268;49.880;8.648;2022-09-09T10:36:44;22.60;99.90
29241;DHT22;16268;49.880;8.648;2022-09-09T10:42:05;21.80;99.90
29241;DHT22;16268;49.880;8.648;2022-09-09T10:47:34;21.10;99.90
29241;DHT22;16268;49.880;8.648;2022-09-09T10:53:01;20.50;99.90
29241;DHT22;16268;49.880;8.648;2022-09-09T10:55:49;20.40;99.90
29241;DHT22;16268;49.880;8.648;2022-09-09T10:58:40;20.30;99.90
29241;DHT22;16268;49.880;8.648;2022-09-09T11:01:36;20.20;99.90
29241;DHT22;16268;49.880;8.648;2022-09-09T11:04:17;20.20;99.90
29241;DHT22;16268;49.880;8.648;2022-09-09T11:06:47;20.00;99.90
29241;DHT22;16268;49.880;8.648;2022-09-09T11:09:16;19.90;99.90
29241;DHT22;16268;49.880;8.648;2022-09-09T11:11:53;19.90;99.90
29241;DHT22;16268;49.880;8.648;2022-09-09T11:14:31;19.90;99.90
29241;DHT22;16268;49.880;8.648;2022-09-09T11:17:02;19.90;99.90
29241;DHT22;16268;49.880;8.648;2022-09-09T11:19:30;20.00;99.90
29241;DHT22;16268;49.880;8.648;2022-09-09T11:25:07;20.30;99.90
29241;DHT22;16268;49.880;8.648;2022-09-09T11:30:22;20.80;99.90
29241;DHT22;16268;49.880;8.648;2022-09-09T11:41:06;21.50;99.90
29241;DHT22;16268;49.880;8.648;2022-09-09T11:43:41;21.40;99.90
29241;DHT22;16268;49.880;8.648;2022-09-09T11:46:08;21.30;99.90
29241;DHT22;16268;49.880;8.648;2022-09-09T11:48:37;21.10;99.90
29241;DHT22;16268;49.880;8.648;2022-09-09T11:51:11;20.90;99.90
29241;DHT22;16268;49.880;8.648;2022-09-09T11:56:33;20.90;99.90
29241;DHT22;16268;49.880;8.648;2022-09-09T12:01:44;20.90;99.90
29241;DHT22;16268;49.880;8.648;2022-09-09T12:12:37;21.30;99.90
29241;DHT22;16268;49.880;8.648;2022-09-09T12:17:46;21.10;99.90
29241;DHT22;16268;49.880;8.648;2022-09-09T12:20:26;21.00;99.90
29241;DHT22;16268;49.880;8.648;2022-09-09T12:23:17;21.20;99.90
29241;DHT22;16268;49.880;8.648;2022-09-09T12:31:15;21.60;99.90
29241;DHT22;16268;49.880;8.648;2022-09-09T12:33:44;21.40;99.90
29241;DHT22;16268;49.880;8.648;2022-09-09T12:36:23;21.30;99.90
29241;DHT22;16268;49.880;8.648;2022-09-09T12:38:50;21.20;99.90
29241;DHT22;16268;49.880;8.648;2022-09-09T12:41:26;21.10;99.90
29241;DHT22;16268;49.880;8.648;2022-09-09T12:44:06;20.90;99.90
29241;DHT22;16268;49.880;8.648;2022-09-09T12:46:39;20.80;99.90
29241;DHT22;16268;49.880;8.648;2022-09-09T12:49:33;20.80;99.90
29241;DHT22;16268;49.880;8.648;2022-09-09T12:52:06;20.90;99.90
29241;DHT22;16268;49.880;8.648;2022-09-09T12:54:35;21.10;99.90
29241;DHT22;16268;49.880;8.648;2022-09-09T12:57:01;21.30;99.90
29241;DHT22;16268;49.880;8.648;2022-09-09T12:59:39;21.30;99.90
29241;DHT22;16268;49.880;8.648;2022-09-09T13:02:18;21.30;99.90
29241;DHT22;16268;49.880;8.648;2022-09-09T13:04:44;21.40;99.90
29241;DHT22;16268;49.880;8.648;2022-09-09T13:07:12;21.60;99.90
29241;DHT22;16268;49.880;8.648;2022-09-09T13:09:39;21.70;99.90
29241;DHT22;16268;49.880;8.648;2022-09-09T13:12:09;21.60;99.90
29241;DHT22;16268;49.880;8.648;2022-09-09T13:14:38;21.60;99.90
29241;DHT22;16268;49.880;8.648;2022-09-09T13:17:05;21.50;99.90
29241;DHT22;16268;49.880;8.648;2022-09-09T13:19:38;21.30;99.90
29241;DHT22;16268;49.880;8.648;2022-09-09T13:22:36;21.20;99.90
29241;DHT22;16268;49.880;8.648;2022-09-09T13:27:36;21.00;99.90
29241;DHT22;16268;49.880;8.648;2022-09-09T13:30:30;20.90;99.90
29241;DHT22;16268;49.880;8.648;2022-09-09T13:35:30;20.70;99.90
29241;DHT22;16268;49.880;8.648;2022-09-09T13:37:56;20.60;99.90
29241;DHT22;16268;49.880;8.648;2022-09-09T13:40:22;20.50;99.90
29241;DHT22;16268;49.880;8.648;2022-09-09T13:42:53;20.50;99.90
29241;DHT22;16268;49.880;8.648;2022-09-09T13:45:22;20.50;99.90
29241;DHT22;16268;49.880;8.648;2022-09-09T13:47:49;20.40;99.90
29241;DHT22;16268;49.880;8.648;2022-09-09T13:50:26;20.30;99.90
29241;DHT22;16268;49.880;8.648;2022-09-09T13:52:54;20.10;99.90
29241;DHT22;16268;49.880;8.648;2022-09-09T13:55:22;20.30;99.90
29241;DHT22;16268;49.880;8.648;2022-09-09T13:58:03;20.60;99.90
29241;DHT22;16268;49.880;8.648;2022-09-09T14:00:32;21.00;99.90
29241;DHT22;16268;49.880;8.648;2022-09-09T14:02:57;21.40;99.90
29241;DHT22;16268;49.880;8.648;2022-09-09T14:05:23;21.50;99.90
29241;DHT22;16268;49.880;8.648;2022-09-09T14:07:49;21.50;99.90
29241;DHT22;16268;49.880;8.648;2022-09-09T14:10:15;21.30;99.90
29241;DHT22;16268;49.880;8.648;2022-09-09T14:12:41;21.20;99.90
29241;DHT22;16268;49.880;8.648;2022-09-09T14:15:07;20.90;99.90
29241;DHT22;16268;49.880;8.648;2022-09-09T14:17:34;20.80;99.90
29241;DHT22;16268;49.880;8.648;2022-09-09T14:20:02;20.50;99.90
29241;DHT22;16268;49.880;8.648;2022-09-09T14:22:29;20.60;99.90
29241;DHT22;16268;49.880;8.648;2022-09-09T14:24:54;20.50;99.90
29241;DHT22;16268;49.880;8.648;2022-09-09T14:27:20;20.50;99.90
29241;DHT22;16268;49.880;8.648;2022-09-09T14:29:45;20.40;99.90
29241;DHT22;16268;49.880;8.648;2022-09-09T14:32:11;20.40;99.90
29241;DHT22;16268;49.880;8.648;2022-09-09T14:34:37;20.30;99.90
29241;DHT22;16268;49.880;8.648;2022-09-09T14:37:03;20.20;99.90
29241;DHT22;16268;49.880;8.648;2022-09-09T14:39:29;20.30;99.90
29241;DHT22;16268;49.880;8.648;2022-09-09T14:41:55;20.40;99.90
29241;DHT22;16268;49.880;8.648;2022-09-09T14:44:20;20.30;99.90
29241;DHT22;16268;49.880;8.648;2022-09-09T14:46:47;20.30;99.90
29241;DHT22;16268;49.880;8.648;2022-09-09T14:49:15;20.20;99.90
29241;DHT22;16268;49.880;8.648;2022-09-09T14:51:41;20.30;99.90
29241;DHT22;16268;49.880;8.648;2022-09-09T14:54:06;20.30;99.90
29241;DHT22;16268;49.880;8.648;2022-09-09T14:56:32;20.30;99.90
29241;DHT22;16268;49.880;8.648;2022-09-09T14:59:00;20.30;99.90
29241;DHT22;16268;49.880;8.648;2022-09-09T15:01:26;20.40;99.90
29241;DHT22;16268;49.880;8.648;2022-09-09T15:03:56;20.50;99.90
29241;DHT22;16268;49.880;8.648;2022-09-09T15:06:23;20.60;99.90
29241;DHT22;16268;49.880;8.648;2022-09-09T15:08:51;20.60;99.90
29241;DHT22;16268;49.880;8.648;2022-09-09T15:11:17;20.70;99.90
29241;DHT22;16268;49.880;8.648;2022-09-09T15:13:43;20.60;99.90
29241;DHT22;16268;49.880;8.648;2022-09-09T15:16:17;20.60;99.90
29241;DHT22;16268;49.880;8.648;2022-09-09T15:18:44;20.70;99.90
29241;DHT22;16268;49.880;8.648;2022-09-09T15:21:12;20.70;99.90
29241;DHT22;16268;49.880;8.648;2022-09-09T15:23:38;20.60;99.90
29241;DHT22;16268;49.880;8.648;2022-09-09T15:26:05;20.60;99.90
29241;DHT22;16268;49.880;8.648;2022-09-09T15:28:36;20.60;99.90
29241;DHT22;16268;49.880;8.648;2022-09-09T15:31:05;20.60;99.90
29241;DHT22;16268;49.880;8.648;2022-09-09T15:33:32;20.60;99.90
29241;DHT22;16268;49.880;8.648;2022-09-09T15:35:58;20.60;99.90
29241;DHT22;16268;49.880;8.648;2022-09-09T15:38:23;20.60;99.90
29241;DHT22;16268;49.880;8.648;2022-09-09T15:40:54;20.60;99.90
29241;DHT22;16268;49.880;8.648;2022-09-09T15:43:20;20.60;99.90
29241;DHT22;16268;49.880;8.648;2022-09-09T15:45:46;20.60;99.90
29241;DHT22;16268;49.880;8.648;2022-09-09T15:48:14;20.50;99.90
29241;DHT22;16268;49.880;8.648;2022-09-09T15:50:39;20.60;99.90
29241;DHT22;16268;49.880;8.648;2022-09-09T15:53:05;20.50;99.90
29241;DHT22;16268;49.880;8.648;2022-09-09T15:55:31;20.50;99.90
29241;DHT22;16268;49.880;8.648;2022-09-09T15:57:56;20.60;99.90
29241;DHT22;16268;49.880;8.648;2022-09-09T16:00:23;20.60;99.90
29241;DHT22;16268;49.880;8.648;2022-09-09T16:02:49;20.70;99.90
29241;DHT22;16268;49.880;8.648;2022-09-09T16:05:15;20.70;99.90
29241;DHT22;16268;49.880;8.648;2022-09-09T16:07:40;20.60;99.90
29241;DHT22;16268;49.880;8.648;2022-09-09T16:10:08;20.70;99.90
29241;DHT22;16268;49.880;8.648;2022-09-09T16:12:34;20.60;99.90
29241;DHT22;16268;49.880;8.648;2022-09-09T16:14:59;20.50;99.90
29241;DHT22;16268;49.880;8.648;2022-09-09T16:17:25;20.40;99.90
29241;DHT22;16268;49.880;8.648;2022-09-09T16:19:51;20.30;99.90
29241;DHT22;16268;49.880;8.648;2022-09-09T16:22:16;20.30;99.90
29241;DHT22;16268;49.880;8.648;2022-09-09T16:24:43;20.10;99.90
29241;DHT22;16268;49.880;8.648;2022-09-09T16:27:10;20.00;99.90
29241;DHT22;16268;49.880;8.648;2022-09-09T16:29:36;19.90;99.90
29241;DHT22;16268;49.880;8.648;2022-09-09T16:32:02;19.90;99.90
29241;DHT22;16268;49.880;8.648;2022-09-09T16:34:27;19.80;99.90
29241;DHT22;16268;49.880;8.648;2022-09-09T16:36:53;19.80;99.90
29241;DHT22;16268;49.880;8.648;2022-09-09T16:39:20;19.70;99.90
29241;DHT22;16268;49.880;8.648;2022-09-09T16:41:47;19.70;99.90
29241;DHT22;16268;49.880;8.648;2022-09-09T16:44:14;19.60;99.90
29241;DHT22;16268;49.880;8.648;2022-09-09T16:46:45;19.60;99.90
29241;DHT22;16268;49.880;8.648;2022-09-09T16:49:13;19.50;99.90
29241;DHT22;16268;49.880;8.648;2022-09-09T16:51:43;19.40;99.90
29241;DHT22;16268;49.880;8.648;2022-09-09T16:54:10;19.30;99.90
29241;DHT22;16268;49.880;8.648;2022-09-09T16:56:38;19.20;99.90
29241;DHT22;16268;49.880;8.648;2022-09-09T16:59:09;19.10;99.90
29241;DHT22;16268;49.880;8.648;2022-09-09T17:01:36;19.10;99.90
29241;DHT22;16268;49.880;8.648;2022-09-09T17:04:04;19.00;99.90
29241;DHT22;16268;49.880;8.648;2022-09-09T17:06:31;19.00;99.90
29241;DHT22;16268;49.880;8.648;2022-09-09T17:09:01;18.90;99.90
29241;DHT22;16268;49.880;8.648;2022-09-09T17:11:29;18.90;99.90
29241;DHT22;16268;49.880;8.648;2022-09-09T17:13:56;18.80;99.90
29241;DHT22;16268;49.880;8.648;2022-09-09T17:16:23;18.70;99.90
29241;DHT22;16268;49.880;8.648;2022-09-09T17:18:50;18.70;99.90
29241;DHT22;16268;49.880;8.648;2022-09-09T17:21:18;18.70;99.90
29241;DHT22;16268;49.880;8.648;2022-09-09T17:23:44;18.60;99.90
29241;DHT22;16268;49.880;8.648;2022-09-09T17:26:13;18.50;99.90
29241;DHT22;16268;49.880;8.648;2022-09-09T17:28:40;18.50;99.90
29241;DHT22;16268;49.880;8.648;2022-09-09T17:31:08;18.50;99.90
29241;DHT22;16268;49.880;8.648;2022-09-09T17:33:36;18.40;99.90
29241;DHT22;16268;49.880;8.648;2022-09-09T17:36:07;18.40;99.90
29241;DHT22;16268;49.880;8.648;2022-09-09T17:38:33;18.40;99.90
29241;DHT22;16268;49.880;8.648;2022-09-09T17:41:04;18.30;99.90